createdAt,value
2023-04-16T00:02:28.230Z,100.00
2023-04-16T00:05:15.153Z,100.00
2023-04-16T00:08:02.532Z,100.00
2023-04-16T00:10:49.528Z,100.00
2023-04-16T00:13:36.651Z,100.00
2023-04-16T00:16:23.656Z,100.00
2023-04-16T00:19:10.776Z,100.00
2023-04-16T00:21:57.808Z,100.00
2023-04-16T00:24:44.732Z,100.00
2023-04-16T00:27:31.684Z,100.00
2023-04-16T00:30:18.742Z,100.00
2023-04-16T00:33:05.723Z,100.00
2023-04-16T00:35:52.631Z,100.00
2023-04-16T00:38:39.568Z,100.00
2023-04-16T00:41:26.847Z,100.00
2023-04-16T00:44:13.787Z,100.00
2023-04-16T00:47:01.270Z,100.00
2023-04-16T00:49:48.617Z,100.00
2023-04-16T00:52:35.692Z,100.00
2023-04-16T00:55:22.752Z,100.00
2023-04-16T00:58:09.696Z,100.00
2023-04-16T01:00:56.819Z,100.00
2023-04-16T01:03:46.682Z,100.00
2023-04-16T01:06:33.710Z,100.00
2023-04-16T01:09:20.850Z,100.00
2023-04-16T01:12:07.760Z,100.00
2023-04-16T01:14:54.716Z,100.00
2023-04-16T01:17:41.671Z,100.00
2023-04-16T01:20:28.588Z,100.00
2023-04-16T01:23:16.100Z,100.00
2023-04-16T01:26:03.157Z,100.00
2023-04-16T01:28:50.193Z,100.00
2023-04-16T01:31:37.225Z,100.00
2023-04-16T01:34:24.261Z,100.00
2023-04-16T01:37:11.252Z,100.00
2023-04-16T01:39:58.240Z,100.00
2023-04-16T01:42:45.392Z,100.00
2023-04-16T01:45:33.485Z,100.00
2023-04-16T01:48:20.516Z,100.00
2023-04-16T01:51:07.552Z,100.00
2023-04-16T01:53:55.257Z,100.00
2023-04-16T01:56:42.227Z,100.00
2023-04-16T01:59:29.081Z,100.00
2023-04-16T02:02:16.620Z,100.00
2023-04-16T02:05:03.936Z,100.00
2023-04-16T02:07:51.015Z,100.00
2023-04-16T02:10:37.937Z,100.00
2023-04-16T02:13:26.195Z,100.00
2023-04-16T02:16:13.273Z,100.00
2023-04-16T02:19:00.240Z,100.00
2023-04-16T02:21:47.596Z,100.00
2023-04-16T02:24:34.500Z,100.00
2023-04-16T02:27:21.422Z,100.00
2023-04-16T02:30:09.286Z,100.00
2023-04-16T02:32:56.247Z,100.00
2023-04-16T02:35:43.288Z,100.00
2023-04-16T02:38:30.207Z,100.00
2023-04-16T02:41:17.402Z,100.00
2023-04-16T02:44:04.430Z,100.00
2023-04-16T02:46:51.356Z,100.00
2023-04-16T02:49:38.275Z,100.00
2023-04-16T02:52:25.357Z,100.00
2023-04-16T02:55:12.289Z,100.00
2023-04-16T02:57:59.199Z,100.00
2023-04-16T03:00:46.284Z,100.00
2023-04-16T03:03:33.332Z,100.00
2023-04-16T03:06:20.477Z,100.00
2023-04-16T03:11:54.384Z,100.00
2023-04-16T03:14:41.325Z,100.00
2023-04-16T03:17:28.236Z,100.00
2023-04-16T03:20:17.098Z,100.00
2023-04-16T03:23:04.046Z,100.00
2023-04-16T03:25:51.142Z,100.00
2023-04-16T03:28:38.020Z,100.00
2023-04-16T03:31:25.138Z,100.00
2023-04-16T03:34:12.089Z,100.00
2023-04-16T03:36:59.024Z,100.00
2023-04-16T03:39:46.057Z,100.00
2023-04-16T03:42:33.050Z,100.00
2023-04-16T03:45:19.974Z,100.00
2023-04-16T03:48:07.072Z,100.00
2023-04-16T03:50:53.935Z,100.00
2023-04-16T03:53:40.847Z,100.00
2023-04-16T03:56:27.814Z,100.00
2023-04-16T03:59:14.792Z,100.00
2023-04-16T04:02:01.819Z,100.00
2023-04-16T04:04:48.872Z,100.00
2023-04-16T04:07:35.900Z,100.00
2023-04-16T04:10:22.963Z,100.00
2023-04-16T04:13:09.877Z,100.00
2023-04-16T04:15:56.979Z,100.00
2023-04-16T04:18:44.543Z,100.00
2023-04-16T04:21:31.986Z,100.00
2023-04-16T04:24:18.839Z,100.00
2023-04-16T04:27:05.840Z,100.00
2023-04-16T04:29:53.450Z,100.00
2023-04-16T04:32:40.569Z,100.00
2023-04-16T04:35:27.525Z,100.00
2023-04-16T04:38:16.112Z,100.00
2023-04-16T04:41:03.253Z,100.00
2023-04-16T04:43:50.334Z,100.00
2023-04-16T04:46:37.339Z,100.00
2023-04-16T04:49:24.265Z,100.00
2023-04-16T04:52:11.860Z,100.00
2023-04-16T04:54:58.878Z,100.00
2023-04-16T04:57:45.860Z,100.00
2023-04-16T05:00:33.496Z,100.00
2023-04-16T05:03:22.063Z,100.00
2023-04-16T05:06:09.099Z,100.00
2023-04-16T05:08:56.002Z,100.00
2023-04-16T05:11:43.270Z,100.00
2023-04-16T05:14:30.302Z,100.00
2023-04-16T05:17:17.331Z,100.00
2023-04-16T05:20:04.639Z,100.00
2023-04-16T05:22:51.820Z,100.00
2023-04-16T05:25:38.741Z,100.00
2023-04-16T05:28:25.667Z,100.00
2023-04-16T05:31:12.607Z,100.00
2023-04-16T05:33:59.537Z,100.00
2023-04-16T05:36:46.420Z,100.00
2023-04-16T05:39:33.321Z,100.00
2023-04-16T05:42:20.241Z,100.00
2023-04-16T05:45:07.934Z,100.00
2023-04-16T05:47:54.985Z,100.00
2023-04-16T05:50:42.165Z,100.00
2023-04-16T05:53:29.021Z,100.00
2023-04-16T05:56:16.165Z,100.00
2023-04-16T05:59:03.072Z,100.00
2023-04-16T06:01:50.008Z,100.00
2023-04-16T06:04:37.273Z,100.00
2023-04-16T06:07:24.276Z,100.00
2023-04-16T06:10:11.283Z,100.00
2023-04-16T06:12:58.157Z,100.00
2023-04-16T06:15:45.115Z,100.00
2023-04-16T06:18:32.056Z,100.00
2023-04-16T06:21:19.142Z,100.00
2023-04-16T06:24:06.375Z,100.00
2023-04-16T06:26:54.338Z,100.00
2023-04-16T06:29:41.966Z,100.00
2023-04-16T06:32:29.027Z,100.00
2023-04-16T06:35:16.203Z,100.00
2023-04-16T06:38:03.059Z,100.00
2023-04-16T06:40:50.053Z,100.00
2023-04-16T06:43:36.957Z,100.00
2023-04-16T06:46:24.117Z,100.00
2023-04-16T06:49:11.296Z,100.00
2023-04-16T06:51:58.485Z,100.00
2023-04-16T06:54:45.384Z,100.00
2023-04-16T06:57:32.288Z,100.00
2023-04-16T07:00:19.271Z,100.00
2023-04-16T07:03:06.443Z,100.00
2023-04-16T07:05:53.422Z,100.00
2023-04-16T07:08:40.336Z,100.00
2023-04-16T07:11:27.427Z,100.00
2023-04-16T07:14:14.957Z,100.00
2023-04-16T07:17:01.971Z,100.00
2023-04-16T07:19:48.916Z,100.00
2023-04-16T07:22:35.912Z,100.00
2023-04-16T07:25:23.067Z,100.00
2023-04-16T07:28:09.974Z,100.00
2023-04-16T07:30:57.048Z,100.00
2023-04-16T07:33:43.962Z,100.00
2023-04-16T07:36:31.921Z,100.00
2023-04-16T07:39:18.780Z,100.00
2023-04-16T07:42:06.466Z,100.00
2023-04-16T07:44:53.574Z,99.59
2023-04-16T07:47:40.662Z,98.83
2023-04-16T07:50:28.087Z,98.25
2023-04-16T07:53:14.984Z,99.97
2023-04-16T07:56:01.897Z,99.02
2023-04-16T07:58:48.764Z,99.47
2023-04-16T08:01:35.701Z,98.06
2023-04-16T08:04:26.552Z,98.50
2023-04-16T08:07:13.531Z,97.60
2023-04-16T08:10:00.436Z,96.54
2023-04-16T08:12:47.296Z,96.19
2023-04-16T08:15:35.405Z,95.99
2023-04-16T08:18:22.457Z,94.14
2023-04-16T08:21:09.431Z,93.81
2023-04-16T08:23:56.340Z,93.10
2023-04-16T08:26:43.200Z,93.12
2023-04-16T08:29:30.126Z,93.39
2023-04-16T08:32:17.190Z,93.98
2023-04-16T08:35:04.486Z,94.70
2023-04-16T08:37:51.409Z,94.04
2023-04-16T08:40:40.095Z,90.77
2023-04-16T08:43:27.894Z,91.15
2023-04-16T08:46:17.707Z,92.68
2023-04-16T08:49:07.343Z,92.90
2023-04-16T08:51:55.942Z,89.91
2023-04-16T08:55:00.616Z,92.01
2023-04-16T08:57:54.457Z,91.74
2023-04-16T09:00:42.092Z,91.66
2023-04-16T09:03:33.212Z,92.52
2023-04-16T09:06:22.220Z,93.57
2023-04-16T09:09:12.692Z,94.26
2023-04-16T09:12:00.006Z,93.86
2023-04-16T09:14:52.936Z,94.89
2023-04-16T09:17:39.946Z,92.66
2023-04-16T09:20:26.897Z,92.17
2023-04-16T09:23:14.017Z,91.20
2023-04-16T09:26:00.942Z,91.63
2023-04-16T09:28:48.971Z,91.83
2023-04-16T09:31:35.933Z,91.78
2023-04-16T09:34:22.864Z,92.70
2023-04-16T09:37:19.400Z,91.64
2023-04-16T09:40:07.392Z,93.20
2023-04-16T09:42:57.524Z,93.21
2023-04-16T09:45:52.882Z,92.77
2023-04-16T09:48:39.818Z,95.11
2023-04-16T09:51:36.486Z,92.35
2023-04-16T09:54:23.301Z,90.94
2023-04-16T09:57:10.661Z,90.46
2023-04-16T10:00:10.426Z,91.51
2023-04-16T10:03:07.574Z,90.97
2023-04-16T10:05:54.772Z,91.62
2023-04-16T10:08:49.653Z,91.16
2023-04-16T10:11:37.711Z,90.96
2023-04-16T10:14:24.632Z,91.55
2023-04-16T10:17:11.680Z,92.36
2023-04-16T10:19:59.075Z,93.64
2023-04-16T10:22:46.250Z,95.32
2023-04-16T10:25:33.278Z,96.85
2023-04-16T10:28:20.671Z,98.75
2023-04-16T10:31:09.421Z,98.31
2023-04-16T10:33:57.871Z,97.67
2023-04-16T10:36:48.863Z,97.76
2023-04-16T10:39:39.122Z,100.00
2023-04-16T10:42:27.553Z,98.78
2023-04-16T10:45:14.799Z,97.52
2023-04-16T10:48:06.251Z,97.63
2023-04-16T10:51:00.106Z,98.66
2023-04-16T10:53:47.977Z,98.79
2023-04-16T10:56:36.417Z,97.99
2023-04-16T10:59:24.579Z,97.06
2023-04-16T11:02:16.574Z,98.96
2023-04-16T11:05:04.000Z,97.69
2023-04-16T11:07:50.887Z,98.14
2023-04-16T11:10:39.652Z,98.63
2023-04-16T11:13:26.679Z,97.02
2023-04-16T11:16:15.639Z,98.50
2023-04-16T11:19:02.711Z,98.43
2023-04-16T11:21:51.028Z,98.16
2023-04-16T11:24:40.423Z,96.17
2023-04-16T11:27:27.352Z,97.49
2023-04-16T11:30:14.547Z,96.70
2023-04-16T11:33:19.721Z,95.97
2023-04-16T11:36:06.922Z,94.57
2023-04-16T11:39:02.538Z,94.64
2023-04-16T11:41:52.328Z,93.41
2023-04-16T11:44:39.274Z,94.67
2023-04-16T11:47:27.177Z,94.61
2023-04-16T11:50:25.726Z,97.01
2023-04-16T11:53:16.183Z,95.04
2023-04-16T11:56:04.768Z,93.68
2023-04-16T11:59:22.896Z,93.08
2023-04-16T12:02:10.082Z,89.75
2023-04-16T12:04:57.115Z,91.63
2023-04-16T12:07:46.218Z,91.41
2023-04-16T12:10:35.174Z,91.48
2023-04-16T12:13:22.783Z,90.72
2023-04-16T12:16:20.950Z,89.59
2023-04-16T12:19:12.489Z,89.42
2023-04-16T12:22:00.970Z,88.48
2023-04-16T12:24:47.835Z,90.26
2023-04-16T12:27:51.488Z,90.67
2023-04-16T12:30:51.379Z,91.13
2023-04-16T12:33:38.365Z,91.52
2023-04-16T12:36:26.251Z,91.21
2023-04-16T12:39:15.009Z,89.75
2023-04-16T12:42:02.710Z,89.59
2023-04-16T12:44:50.119Z,88.33
2023-04-16T12:47:37.112Z,87.87
2023-04-16T12:50:24.104Z,87.70
2023-04-16T12:53:11.814Z,89.17
2023-04-16T12:55:59.441Z,89.15
2023-04-16T12:58:46.407Z,89.30
2023-04-16T13:01:36.145Z,88.28
2023-04-16T13:04:25.674Z,87.14
2023-04-16T13:07:12.884Z,88.43
2023-04-16T13:10:00.949Z,87.40
2023-04-16T13:12:48.203Z,88.78
2023-04-16T13:15:35.135Z,90.80
2023-04-16T13:18:22.022Z,87.44
2023-04-16T13:21:08.966Z,89.74
2023-04-16T13:23:56.235Z,86.36
2023-04-16T13:26:43.545Z,86.20
2023-04-16T13:29:30.791Z,86.20
2023-04-16T13:32:18.881Z,86.43
2023-04-16T13:35:06.498Z,87.43
2023-04-16T13:37:53.425Z,85.31
2023-04-16T13:40:40.333Z,88.07
2023-04-16T13:43:27.205Z,84.88
2023-04-16T13:46:14.193Z,85.31
2023-04-16T13:49:01.353Z,84.79
2023-04-16T13:51:48.379Z,85.23
2023-04-16T13:54:35.345Z,86.37
2023-04-16T13:57:22.719Z,86.13
2023-04-16T14:00:12.627Z,86.44
2023-04-16T14:03:00.825Z,87.71
2023-04-16T14:05:47.929Z,88.54
2023-04-16T14:08:35.318Z,88.15
2023-04-16T14:11:22.400Z,87.51
2023-04-16T14:14:09.698Z,87.86
2023-04-16T14:17:03.384Z,87.55
2023-04-16T14:19:50.384Z,86.86
2023-04-16T14:22:37.326Z,89.52
2023-04-16T14:25:24.546Z,88.49
2023-04-16T14:28:12.242Z,89.61
2023-04-16T14:31:00.496Z,88.93
2023-04-16T14:33:47.411Z,87.80
2023-04-16T14:36:35.166Z,84.79
2023-04-16T14:39:22.128Z,85.28
2023-04-16T14:42:09.270Z,85.18
2023-04-16T14:44:56.151Z,84.42
2023-04-16T14:47:47.702Z,84.84
2023-04-16T14:50:37.992Z,81.93
2023-04-16T14:53:25.129Z,84.34
2023-04-16T14:56:13.552Z,83.39
2023-04-16T14:59:00.557Z,82.87
2023-04-16T15:01:47.596Z,82.22
2023-04-16T15:04:34.715Z,82.43
2023-04-16T15:07:22.111Z,83.23
2023-04-16T15:10:10.052Z,85.35
2023-04-16T15:12:56.948Z,84.17
2023-04-16T15:15:43.890Z,84.31
2023-04-16T15:18:31.352Z,84.09
2023-04-16T15:21:18.303Z,81.11
2023-04-16T15:24:05.500Z,83.59
2023-04-16T15:26:52.478Z,81.38
2023-04-16T15:29:39.383Z,82.83
2023-04-16T15:32:26.311Z,83.39
2023-04-16T15:35:14.132Z,83.74
2023-04-16T15:38:01.103Z,86.15
2023-04-16T15:40:48.113Z,86.01
2023-04-16T15:43:35.099Z,86.39
2023-04-16T15:46:22.024Z,86.42
2023-04-16T15:49:09.324Z,85.71
2023-04-16T15:51:56.568Z,85.29
2023-04-16T15:54:43.518Z,85.79
2023-04-16T15:57:30.601Z,85.66
2023-04-16T16:00:18.835Z,85.16
2023-04-16T16:03:06.233Z,86.11
2023-04-16T16:05:53.246Z,86.61
2023-04-16T16:08:42.006Z,85.82
2023-04-16T16:11:28.990Z,85.25
2023-04-16T16:14:18.509Z,84.99
2023-04-16T16:17:05.731Z,83.63
2023-04-16T16:19:52.669Z,84.35
2023-04-16T16:22:40.614Z,83.22
2023-04-16T16:25:28.135Z,83.49
2023-04-16T16:28:15.301Z,82.74
2023-04-16T16:31:03.724Z,79.67
2023-04-16T16:33:50.788Z,81.10
2023-04-16T16:36:38.274Z,80.65
2023-04-16T16:39:25.427Z,79.98
2023-04-16T16:42:12.390Z,81.33
2023-04-16T16:44:59.291Z,79.86
2023-04-16T16:47:46.854Z,80.09
2023-04-16T16:50:33.841Z,82.01
2023-04-16T16:53:20.766Z,83.50
2023-04-16T16:56:07.669Z,81.86
2023-04-16T16:58:54.598Z,82.36
2023-04-16T17:01:41.874Z,82.19
2023-04-16T17:04:28.858Z,81.97
2023-04-16T17:07:15.930Z,82.18
2023-04-16T17:10:06.035Z,81.43
2023-04-16T17:12:53.666Z,80.14
2023-04-16T17:15:41.005Z,80.22
2023-04-16T17:18:28.265Z,80.35
2023-04-16T17:21:16.523Z,81.03
2023-04-16T17:24:04.006Z,81.60
2023-04-16T17:26:50.984Z,81.03
2023-04-16T17:29:37.871Z,83.07
2023-04-16T17:32:24.775Z,85.06
2023-04-16T17:35:13.690Z,86.85
2023-04-16T17:38:01.257Z,87.57
2023-04-16T17:40:48.169Z,87.07
2023-04-16T17:43:35.116Z,89.02
2023-04-16T17:46:22.041Z,90.89
2023-04-16T17:49:09.039Z,92.12
2023-04-16T17:51:55.950Z,95.46
2023-04-16T17:54:42.962Z,96.32
2023-04-16T17:57:30.328Z,96.49
2023-04-16T18:00:17.943Z,96.41
2023-04-16T18:03:04.938Z,97.16
2023-04-16T18:05:51.908Z,97.16
2023-04-16T18:08:38.947Z,97.00
2023-04-16T18:11:25.933Z,97.86
2023-04-16T18:14:16.685Z,98.42
2023-04-16T18:17:06.240Z,98.47
2023-04-16T18:19:53.485Z,99.27
2023-04-16T18:22:40.412Z,98.60
2023-04-16T18:25:34.395Z,98.72
2023-04-16T18:28:22.232Z,98.65
2023-04-16T18:31:09.378Z,99.33
2023-04-16T18:33:58.262Z,99.11
2023-04-16T18:36:45.733Z,98.44
2023-04-16T18:39:33.554Z,98.56
2023-04-16T18:42:20.855Z,98.26
2023-04-16T18:45:13.004Z,97.57
2023-04-16T18:48:02.909Z,97.51
2023-04-16T18:50:49.835Z,99.20
2023-04-16T18:53:36.913Z,98.26
2023-04-16T18:56:23.822Z,98.25
2023-04-16T18:59:10.909Z,97.90
2023-04-16T19:01:58.033Z,97.87
2023-04-16T19:04:44.914Z,98.27
2023-04-16T19:07:31.870Z,97.93
2023-04-16T19:10:18.923Z,98.16
2023-04-16T19:13:05.926Z,98.98
2023-04-16T19:15:58.680Z,98.99
2023-04-16T19:18:45.591Z,98.29
2023-04-16T19:21:32.574Z,99.08
2023-04-16T19:24:19.917Z,98.77
2023-04-16T19:27:06.872Z,98.54
2023-04-16T19:29:54.373Z,98.33
2023-04-16T19:32:41.585Z,98.77
2023-04-16T19:35:30.063Z,98.47
2023-04-16T19:38:17.000Z,98.89
2023-04-16T19:41:03.912Z,99.60
2023-04-16T19:43:50.883Z,99.95
2023-04-16T19:46:37.790Z,98.89
2023-04-16T19:49:27.469Z,99.28
2023-04-16T19:52:14.859Z,98.12
2023-04-16T19:55:01.958Z,98.24
2023-04-16T19:57:48.879Z,98.10
2023-04-16T20:00:41.152Z,97.42
2023-04-16T20:03:28.142Z,97.59
2023-04-16T20:06:17.370Z,97.77
2023-04-16T20:09:04.950Z,98.12
2023-04-16T20:11:51.880Z,98.39
2023-04-16T20:14:38.769Z,99.00
2023-04-16T20:17:26.027Z,99.57
2023-04-16T20:20:15.650Z,98.89
2023-04-16T20:23:02.655Z,99.39
2023-04-16T20:25:49.577Z,98.21
2023-04-16T20:28:36.449Z,98.71
2023-04-16T20:31:23.407Z,98.43
2023-04-16T20:34:10.545Z,98.96
2023-04-16T20:36:58.020Z,99.53
2023-04-16T20:39:46.600Z,99.87
2023-04-16T20:42:33.537Z,99.45
2023-04-16T20:45:20.913Z,99.18
2023-04-16T20:48:08.150Z,99.45
2023-04-16T20:50:59.650Z,99.25
2023-04-16T20:53:46.558Z,99.91
2023-04-16T20:56:33.654Z,99.83
2023-04-16T20:59:20.616Z,99.79
2023-04-16T21:02:07.962Z,100.00
2023-04-16T21:04:54.985Z,99.94
2023-04-16T21:07:42.314Z,100.00
2023-04-16T21:10:29.299Z,100.00
2023-04-16T21:13:16.229Z,100.00
2023-04-16T21:16:04.909Z,100.00
2023-04-16T21:18:51.809Z,100.00
2023-04-16T21:21:38.922Z,100.00
2023-04-16T21:24:25.864Z,100.00
2023-04-16T21:27:12.783Z,100.00
2023-04-16T21:29:59.675Z,99.75
2023-04-16T21:32:46.725Z,100.00
2023-04-16T21:35:33.682Z,100.00
2023-04-16T21:38:21.756Z,100.00
2023-04-16T21:41:08.661Z,100.00
2023-04-16T21:43:55.739Z,100.00
2023-04-16T21:46:42.715Z,100.00
2023-04-16T21:49:29.654Z,100.00
2023-04-16T21:52:19.577Z,100.00
2023-04-16T21:55:08.877Z,99.04
2023-04-16T21:57:55.963Z,99.57
2023-04-16T22:00:42.933Z,100.00
2023-04-16T22:03:31.157Z,99.84
2023-04-16T22:06:18.437Z,99.84
2023-04-16T22:09:05.318Z,99.99
2023-04-16T22:11:52.446Z,100.00
2023-04-16T22:14:46.195Z,100.00
2023-04-16T22:17:42.492Z,100.00
2023-04-16T22:20:30.796Z,100.00
2023-04-16T22:23:17.744Z,100.00
2023-04-16T22:26:04.892Z,100.00
2023-04-16T22:28:51.876Z,100.00
2023-04-16T22:31:38.857Z,100.00
2023-04-16T22:34:25.894Z,100.00
2023-04-16T22:37:12.767Z,100.00
2023-04-16T22:39:59.825Z,100.00
2023-04-16T22:42:47.725Z,100.00
2023-04-16T22:45:34.739Z,100.00
2023-04-16T22:48:21.643Z,100.00
2023-04-16T22:51:09.044Z,100.00
2023-04-16T22:53:56.454Z,100.00
2023-04-16T22:56:43.406Z,100.00
2023-04-16T22:59:31.035Z,100.00
2023-04-16T23:02:18.746Z,100.00
2023-04-16T23:05:06.039Z,100.00
2023-04-16T23:07:52.951Z,100.00
2023-04-16T23:10:39.875Z,100.00
2023-04-16T23:13:26.860Z,100.00
2023-04-16T23:16:13.857Z,100.00
2023-04-16T23:19:00.926Z,100.00
2023-04-16T23:21:47.862Z,100.00
2023-04-16T23:24:34.977Z,100.00
2023-04-16T23:27:22.043Z,100.00
2023-04-16T23:30:09.535Z,100.00
2023-04-16T23:32:56.450Z,100.00
2023-04-16T23:35:43.441Z,100.00
2023-04-16T23:38:30.726Z,100.00
2023-04-16T23:41:17.721Z,100.00
2023-04-16T23:44:04.802Z,100.00
2023-04-16T23:46:51.789Z,100.00
2023-04-16T23:49:38.719Z,100.00
2023-04-16T23:52:25.636Z,99.41
2023-04-16T23:55:12.613Z,99.77
2023-04-16T23:57:59.553Z,100.00
